sensor_id;sensor_type;location;lat;lon;timestamp;P1;durP1;ratioP1;P2;durP2;ratioP2
32808;SDS011;19159;48.178;16.386;2023-07-29T00:01:50;2.80;;;1.90;;
32808;SDS011;19159;48.178;16.386;2023-07-29T00:04:16;4.30;;;1.73;;
32808;SDS011;19159;48.178;16.386;2023-07-29T00:06:42;2.83;;;1.88;;
32808;SDS011;19159;48.178;16.386;2023-07-29T00:09:07;2.95;;;2.03;;
32808;SDS011;19159;48.178;16.386;2023-07-29T00:11:33;2.20;;;1.73;;
32808;SDS011;19159;48.178;16.386;2023-07-29T00:14:01;2.25;;;1.63;;
32808;SDS011;19159;48.178;16.386;2023-07-29T00:16:27;2.92;;;2.00;;
32808;SDS011;19159;48.178;16.386;2023-07-29T00:18:53;2.53;;;1.85;;
32808;SDS011;19159;48.178;16.386;2023-07-29T00:21:18;2.00;;;1.70;;
32808;SDS011;19159;48.178;16.386;2023-07-29T00:23:44;3.83;;;1.92;;
32808;SDS011;19159;48.178;16.386;2023-07-29T00:26:10;1.95;;;1.75;;
32808;SDS011;19159;48.178;16.386;2023-07-29T00:28:36;2.17;;;1.70;;
32808;SDS011;19159;48.178;16.386;2023-07-29T00:31:01;2.67;;;1.98;;
32808;SDS011;19159;48.178;16.386;2023-07-29T00:33:27;2.13;;;1.73;;
32808;SDS011;19159;48.178;16.386;2023-07-29T00:35:53;3.35;;;2.17;;
32808;SDS011;19159;48.178;16.386;2023-07-29T00:38:18;3.65;;;1.90;;
32808;SDS011;19159;48.178;16.386;2023-07-29T00:40:44;2.05;;;1.83;;
32808;SDS011;19159;48.178;16.386;2023-07-29T00:43:10;1.92;;;1.73;;
32808;SDS011;19159;48.178;16.386;2023-07-29T00:45:35;2.30;;;1.85;;
32808;SDS011;19159;48.178;16.386;2023-07-29T00:48:01;2.45;;;2.13;;
32808;SDS011;19159;48.178;16.386;2023-07-29T00:50:28;2.42;;;1.90;;
32808;SDS011;19159;48.178;16.386;2023-07-29T00:52:55;2.85;;;2.10;;
32808;SDS011;19159;48.178;16.386;2023-07-29T00:55:22;2.65;;;2.00;;
32808;SDS011;19159;48.178;16.386;2023-07-29T00:57:48;3.75;;;2.17;;
32808;SDS011;19159;48.178;16.386;2023-07-29T01:00:16;2.97;;;1.70;;
32808;SDS011;19159;48.178;16.386;2023-07-29T01:02:42;2.05;;;1.85;;
32808;SDS011;19159;48.178;16.386;2023-07-29T01:05:08;2.70;;;2.13;;
32808;SDS011;19159;48.178;16.386;2023-07-29T01:07:39;2.47;;;2.00;;
32808;SDS011;19159;48.178;16.386;2023-07-29T01:10:22;2.20;;;1.75;;
32808;SDS011;19159;48.178;16.386;2023-07-29T01:18:24;2.42;;;2.15;;
32808;SDS011;19159;48.178;16.386;2023-07-29T01:20:53;2.20;;;1.73;;
32808;SDS011;19159;48.178;16.386;2023-07-29T01:23:26;3.22;;;2.10;;
32808;SDS011;19159;48.178;16.386;2023-07-29T01:25:55;5.45;;;1.90;;
32808;SDS011;19159;48.178;16.386;2023-07-29T01:28:21;4.60;;;2.05;;
32808;SDS011;19159;48.178;16.386;2023-07-29T01:30:47;2.47;;;2.20;;
32808;SDS011;19159;48.178;16.386;2023-07-29T01:33:17;2.38;;;1.83;;
32808;SDS011;19159;48.178;16.386;2023-07-29T01:35:50;4.63;;;2.53;;
32808;SDS011;19159;48.178;16.386;2023-07-29T01:38:21;2.22;;;1.63;;
32808;SDS011;19159;48.178;16.386;2023-07-29T01:40:56;2.78;;;2.10;;
32808;SDS011;19159;48.178;16.386;2023-07-29T01:43:26;2.03;;;1.83;;
32808;SDS011;19159;48.178;16.386;2023-07-29T01:45:56;2.10;;;1.88;;
32808;SDS011;19159;48.178;16.386;2023-07-29T01:48:22;3.38;;;2.20;;
32808;SDS011;19159;48.178;16.386;2023-07-29T01:50:47;2.17;;;1.98;;
32808;SDS011;19159;48.178;16.386;2023-07-29T01:53:13;4.05;;;2.13;;
32808;SDS011;19159;48.178;16.386;2023-07-29T01:55:39;1.80;;;1.50;;
32808;SDS011;19159;48.178;16.386;2023-07-29T01:58:05;2.45;;;1.65;;
32808;SDS011;19159;48.178;16.386;2023-07-29T02:00:30;2.40;;;2.05;;
32808;SDS011;19159;48.178;16.386;2023-07-29T02:02:56;3.70;;;2.03;;
32808;SDS011;19159;48.178;16.386;2023-07-29T02:05:22;3.15;;;2.03;;
32808;SDS011;19159;48.178;16.386;2023-07-29T02:07:47;2.65;;;2.03;;
32808;SDS011;19159;48.178;16.386;2023-07-29T02:10:13;3.35;;;2.08;;
32808;SDS011;19159;48.178;16.386;2023-07-29T02:12:39;3.13;;;1.92;;
32808;SDS011;19159;48.178;16.386;2023-07-29T02:15:04;4.15;;;2.10;;
32808;SDS011;19159;48.178;16.386;2023-07-29T02:17:31;4.15;;;2.17;;
32808;SDS011;19159;48.178;16.386;2023-07-29T02:19:56;2.28;;;1.88;;
32808;SDS011;19159;48.178;16.386;2023-07-29T02:22:22;2.05;;;1.77;;
32808;SDS011;19159;48.178;16.386;2023-07-29T02:24:47;2.15;;;1.80;;
32808;SDS011;19159;48.178;16.386;2023-07-29T02:27:13;3.28;;;2.22;;
32808;SDS011;19159;48.178;16.386;2023-07-29T02:29:39;2.38;;;2.00;;
32808;SDS011;19159;48.178;16.386;2023-07-29T02:32:04;2.67;;;1.70;;
32808;SDS011;19159;48.178;16.386;2023-07-29T02:34:30;2.10;;;1.90;;
32808;SDS011;19159;48.178;16.386;2023-07-29T02:36:56;2.80;;;1.83;;
32808;SDS011;19159;48.178;16.386;2023-07-29T02:39:22;1.88;;;1.67;;
32808;SDS011;19159;48.178;16.386;2023-07-29T02:41:48;2.55;;;1.92;;
32808;SDS011;19159;48.178;16.386;2023-07-29T02:44:14;1.77;;;1.55;;
32808;SDS011;19159;48.178;16.386;2023-07-29T02:46:39;2.00;;;1.52;;
32808;SDS011;19159;48.178;16.386;2023-07-29T02:49:05;2.55;;;1.70;;
32808;SDS011;19159;48.178;16.386;2023-07-29T02:51:31;1.98;;;1.77;;
32808;SDS011;19159;48.178;16.386;2023-07-29T02:53:56;3.35;;;1.67;;
32808;SDS011;19159;48.178;16.386;2023-07-29T02:56:22;2.58;;;1.83;;
32808;SDS011;19159;48.178;16.386;2023-07-29T02:58:47;1.58;;;1.40;;
32808;SDS011;19159;48.178;16.386;2023-07-29T03:01:13;1.88;;;1.65;;
32808;SDS011;19159;48.178;16.386;2023-07-29T03:03:39;2.35;;;1.67;;
32808;SDS011;19159;48.178;16.386;2023-07-29T03:06:06;2.05;;;1.48;;
32808;SDS011;19159;48.178;16.386;2023-07-29T03:08:32;1.75;;;1.48;;
32808;SDS011;19159;48.178;16.386;2023-07-29T03:10:58;1.80;;;1.50;;
32808;SDS011;19159;48.178;16.386;2023-07-29T03:13:29;2.55;;;1.40;;
32808;SDS011;19159;48.178;16.386;2023-07-29T03:16:03;1.60;;;1.50;;
32808;SDS011;19159;48.178;16.386;2023-07-29T03:18:32;1.65;;;1.30;;
32808;SDS011;19159;48.178;16.386;2023-07-29T03:20:58;2.67;;;1.35;;
32808;SDS011;19159;48.178;16.386;2023-07-29T03:23:24;2.72;;;1.48;;
32808;SDS011;19159;48.178;16.386;2023-07-29T03:25:49;1.65;;;1.40;;
32808;SDS011;19159;48.178;16.386;2023-07-29T03:28:21;1.90;;;1.27;;
32808;SDS011;19159;48.178;16.386;2023-07-29T03:30:48;1.83;;;1.20;;
32808;SDS011;19159;48.178;16.386;2023-07-29T03:33:13;2.22;;;1.60;;
32808;SDS011;19159;48.178;16.386;2023-07-29T03:35:39;1.45;;;1.15;;
32808;SDS011;19159;48.178;16.386;2023-07-29T03:38:05;1.70;;;1.20;;
32808;SDS011;19159;48.178;16.386;2023-07-29T03:40:30;1.70;;;1.30;;
32808;SDS011;19159;48.178;16.386;2023-07-29T03:42:56;2.90;;;1.50;;
32808;SDS011;19159;48.178;16.386;2023-07-29T03:45:21;1.80;;;1.23;;
32808;SDS011;19159;48.178;16.386;2023-07-29T03:47:47;1.10;;;1.00;;
32808;SDS011;19159;48.178;16.386;2023-07-29T03:50:12;2.08;;;1.40;;
32808;SDS011;19159;48.178;16.386;2023-07-29T03:52:38;1.20;;;1.10;;
32808;SDS011;19159;48.178;16.386;2023-07-29T03:55:04;2.35;;;1.20;;
32808;SDS011;19159;48.178;16.386;2023-07-29T03:57:30;1.30;;;1.20;;
32808;SDS011;19159;48.178;16.386;2023-07-29T03:59:55;1.10;;;1.00;;
32808;SDS011;19159;48.178;16.386;2023-07-29T04:02:21;2.35;;;1.38;;
32808;SDS011;19159;48.178;16.386;2023-07-29T04:04:46;2.13;;;1.45;;
32808;SDS011;19159;48.178;16.386;2023-07-29T04:07:13;1.95;;;1.20;;
32808;SDS011;19159;48.178;16.386;2023-07-29T04:09:39;1.45;;;1.13;;
32808;SDS011;19159;48.178;16.386;2023-07-29T04:12:05;1.60;;;1.20;;
32808;SDS011;19159;48.178;16.386;2023-07-29T04:14:30;3.50;;;1.73;;
32808;SDS011;19159;48.178;16.386;2023-07-29T04:16:56;2.60;;;1.50;;
32808;SDS011;19159;48.178;16.386;2023-07-29T04:19:22;2.67;;;1.55;;
32808;SDS011;19159;48.178;16.386;2023-07-29T04:21:47;1.75;;;1.20;;
32808;SDS011;19159;48.178;16.386;2023-07-29T04:24:13;1.67;;;1.50;;
32808;SDS011;19159;48.178;16.386;2023-07-29T04:26:38;2.35;;;1.35;;
32808;SDS011;19159;48.178;16.386;2023-07-29T04:29:04;1.90;;;1.50;;
32808;SDS011;19159;48.178;16.386;2023-07-29T04:31:30;1.83;;;1.30;;
32808;SDS011;19159;48.178;16.386;2023-07-29T04:33:55;2.20;;;1.40;;
32808;SDS011;19159;48.178;16.386;2023-07-29T04:36:21;1.83;;;1.45;;
32808;SDS011;19159;48.178;16.386;2023-07-29T04:38:46;2.38;;;1.40;;
32808;SDS011;19159;48.178;16.386;2023-07-29T04:41:12;1.73;;;1.40;;
32808;SDS011;19159;48.178;16.386;2023-07-29T04:43:38;2.35;;;1.50;;
32808;SDS011;19159;48.178;16.386;2023-07-29T04:46:06;1.80;;;1.30;;
32808;SDS011;19159;48.178;16.386;2023-07-29T04:48:33;1.95;;;1.33;;
32808;SDS011;19159;48.178;16.386;2023-07-29T04:50:58;1.63;;;1.40;;
32808;SDS011;19159;48.178;16.386;2023-07-29T04:53:24;2.30;;;1.58;;
32808;SDS011;19159;48.178;16.386;2023-07-29T04:55:50;2.25;;;1.73;;
32808;SDS011;19159;48.178;16.386;2023-07-29T04:58:15;2.28;;;1.40;;
32808;SDS011;19159;48.178;16.386;2023-07-29T05:00:41;2.13;;;1.33;;
32808;SDS011;19159;48.178;16.386;2023-07-29T05:03:06;1.65;;;1.40;;
32808;SDS011;19159;48.178;16.386;2023-07-29T05:05:32;2.55;;;1.60;;
32808;SDS011;19159;48.178;16.386;2023-07-29T05:07:58;1.90;;;1.38;;
32808;SDS011;19159;48.178;16.386;2023-07-29T05:10:23;1.30;;;1.20;;
32808;SDS011;19159;48.178;16.386;2023-07-29T05:12:49;1.52;;;1.30;;
32808;SDS011;19159;48.178;16.386;2023-07-29T05:15:15;3.15;;;1.27;;
32808;SDS011;19159;48.178;16.386;2023-07-29T05:17:41;1.45;;;1.20;;
32808;SDS011;19159;48.178;16.386;2023-07-29T05:20:06;2.35;;;1.45;;
32808;SDS011;19159;48.178;16.386;2023-07-29T05:22:33;2.33;;;1.23;;
32808;SDS011;19159;48.178;16.386;2023-07-29T05:24:58;1.98;;;1.27;;
32808;SDS011;19159;48.178;16.386;2023-07-29T05:27:24;2.13;;;1.58;;
32808;SDS011;19159;48.178;16.386;2023-07-29T05:29:49;1.85;;;1.45;;
32808;SDS011;19159;48.178;16.386;2023-07-29T05:32:15;1.88;;;1.50;;
32808;SDS011;19159;48.178;16.386;2023-07-29T05:34:40;2.33;;;1.50;;
32808;SDS011;19159;48.178;16.386;2023-07-29T05:37:06;2.50;;;1.40;;
32808;SDS011;19159;48.178;16.386;2023-07-29T05:39:31;2.63;;;1.40;;
32808;SDS011;19159;48.178;16.386;2023-07-29T05:41:58;1.55;;;1.20;;
32808;SDS011;19159;48.178;16.386;2023-07-29T05:44:23;3.65;;;1.58;;
32808;SDS011;19159;48.178;16.386;2023-07-29T05:46:49;1.40;;;1.17;;
32808;SDS011;19159;48.178;16.386;2023-07-29T05:49:15;2.17;;;1.48;;
32808;SDS011;19159;48.178;16.386;2023-07-29T05:51:40;2.47;;;1.30;;
32808;SDS011;19159;48.178;16.386;2023-07-29T05:54:06;2.00;;;1.30;;
32808;SDS011;19159;48.178;16.386;2023-07-29T05:56:31;1.75;;;1.10;;
32808;SDS011;19159;48.178;16.386;2023-07-29T05:58:57;2.00;;;1.33;;
32808;SDS011;19159;48.178;16.386;2023-07-29T06:01:22;2.05;;;1.40;;
32808;SDS011;19159;48.178;16.386;2023-07-29T06:03:48;1.67;;;1.30;;
32808;SDS011;19159;48.178;16.386;2023-07-29T06:06:14;1.55;;;1.27;;
32808;SDS011;19159;48.178;16.386;2023-07-29T06:08:39;1.20;;;1.10;;
32808;SDS011;19159;48.178;16.386;2023-07-29T06:13:33;1.52;;;1.20;;
32808;SDS011;19159;48.178;16.386;2023-07-29T06:15:58;2.20;;;1.10;;
32808;SDS011;19159;48.178;16.386;2023-07-29T06:18:24;1.73;;;1.15;;
32808;SDS011;19159;48.178;16.386;2023-07-29T06:20:50;2.00;;;1.30;;
32808;SDS011;19159;48.178;16.386;2023-07-29T06:23:16;1.38;;;1.15;;
32808;SDS011;19159;48.178;16.386;2023-07-29T06:25:42;1.35;;;1.00;;
32808;SDS011;19159;48.178;16.386;2023-07-29T06:28:08;1.67;;;1.10;;
32808;SDS011;19159;48.178;16.386;2023-07-29T06:30:36;1.30;;;1.02;;
32808;SDS011;19159;48.178;16.386;2023-07-29T06:33:01;1.05;;;0.93;;
32808;SDS011;19159;48.178;16.386;2023-07-29T06:35:28;1.30;;;1.08;;
32808;SDS011;19159;48.178;16.386;2023-07-29T06:37:54;1.40;;;1.00;;
32808;SDS011;19159;48.178;16.386;2023-07-29T06:40:19;2.22;;;1.08;;
32808;SDS011;19159;48.178;16.386;2023-07-29T06:42:45;1.25;;;1.00;;
32808;SDS011;19159;48.178;16.386;2023-07-29T06:45:11;1.27;;;0.88;;
32808;SDS011;19159;48.178;16.386;2023-07-29T06:47:37;1.00;;;0.90;;
32808;SDS011;19159;48.178;16.386;2023-07-29T06:50:03;1.75;;;1.00;;
32808;SDS011;19159;48.178;16.386;2023-07-29T06:52:28;2.92;;;1.10;;
32808;SDS011;19159;48.178;16.386;2023-07-29T06:54:54;2.03;;;0.80;;
32808;SDS011;19159;48.178;16.386;2023-07-29T06:57:20;3.55;;;1.10;;
32808;SDS011;19159;48.178;16.386;2023-07-29T06:59:45;3.67;;;0.95;;
32808;SDS011;19159;48.178;16.386;2023-07-29T07:02:11;1.10;;;1.00;;
32808;SDS011;19159;48.178;16.386;2023-07-29T07:04:36;1.95;;;1.00;;
32808;SDS011;19159;48.178;16.386;2023-07-29T07:07:02;2.90;;;1.08;;
32808;SDS011;19159;48.178;16.386;2023-07-29T07:09:28;1.05;;;0.95;;
32808;SDS011;19159;48.178;16.386;2023-07-29T07:11:53;1.33;;;0.95;;
32808;SDS011;19159;48.178;16.386;2023-07-29T07:14:19;1.52;;;0.90;;
32808;SDS011;19159;48.178;16.386;2023-07-29T07:16:44;1.38;;;0.70;;
32808;SDS011;19159;48.178;16.386;2023-07-29T07:19:10;1.90;;;1.20;;
32808;SDS011;19159;48.178;16.386;2023-07-29T07:21:36;1.20;;;1.00;;
32808;SDS011;19159;48.178;16.386;2023-07-29T07:24:01;2.05;;;1.23;;
32808;SDS011;19159;48.178;16.386;2023-07-29T07:26:27;1.00;;;0.90;;
32808;SDS011;19159;48.178;16.386;2023-07-29T07:28:53;1.75;;;1.13;;
32808;SDS011;19159;48.178;16.386;2023-07-29T07:31:19;2.38;;;1.10;;
32808;SDS011;19159;48.178;16.386;2023-07-29T07:33:44;1.52;;;1.20;;
32808;SDS011;19159;48.178;16.386;2023-07-29T07:36:10;1.98;;;1.10;;
32808;SDS011;19159;48.178;16.386;2023-07-29T07:38:35;0.80;;;0.80;;
32808;SDS011;19159;48.178;16.386;2023-07-29T07:41:01;1.67;;;1.30;;
32808;SDS011;19159;48.178;16.386;2023-07-29T07:43:27;2.95;;;1.17;;
32808;SDS011;19159;48.178;16.386;2023-07-29T07:45:59;1.23;;;1.00;;
32808;SDS011;19159;48.178;16.386;2023-07-29T07:48:26;1.00;;;0.90;;
32808;SDS011;19159;48.178;16.386;2023-07-29T07:50:52;1.45;;;1.00;;
32808;SDS011;19159;48.178;16.386;2023-07-29T07:53:18;1.67;;;1.05;;
32808;SDS011;19159;48.178;16.386;2023-07-29T07:55:45;1.85;;;1.15;;
32808;SDS011;19159;48.178;16.386;2023-07-29T07:58:10;1.10;;;1.00;;
32808;SDS011;19159;48.178;16.386;2023-07-29T08:00:36;1.30;;;1.15;;
32808;SDS011;19159;48.178;16.386;2023-07-29T08:03:01;1.05;;;0.93;;
32808;SDS011;19159;48.178;16.386;2023-07-29T08:05:27;1.15;;;0.80;;
32808;SDS011;19159;48.178;16.386;2023-07-29T08:07:53;0.93;;;0.80;;
32808;SDS011;19159;48.178;16.386;2023-07-29T08:10:18;1.45;;;0.90;;
32808;SDS011;19159;48.178;16.386;2023-07-29T08:12:44;1.35;;;0.70;;
32808;SDS011;19159;48.178;16.386;2023-07-29T08:15:09;0.95;;;0.85;;
32808;SDS011;19159;48.178;16.386;2023-07-29T08:17:35;1.23;;;0.90;;
32808;SDS011;19159;48.178;16.386;2023-07-29T08:20:01;1.17;;;0.70;;
32808;SDS011;19159;48.178;16.386;2023-07-29T08:22:26;2.15;;;1.00;;
32808;SDS011;19159;48.178;16.386;2023-07-29T08:24:52;1.15;;;0.70;;
32808;SDS011;19159;48.178;16.386;2023-07-29T08:27:17;2.38;;;0.80;;
32808;SDS011;19159;48.178;16.386;2023-07-29T08:29:43;2.47;;;0.80;;
32808;SDS011;19159;48.178;16.386;2023-07-29T08:32:08;2.05;;;1.00;;
32808;SDS011;19159;48.178;16.386;2023-07-29T08:34:34;2.13;;;0.85;;
32808;SDS011;19159;48.178;16.386;2023-07-29T08:37:00;3.03;;;0.63;;
32808;SDS011;19159;48.178;16.386;2023-07-29T08:39:25;1.27;;;0.68;;
32808;SDS011;19159;48.178;16.386;2023-07-29T08:42:03;0.88;;;0.65;;
32808;SDS011;19159;48.178;16.386;2023-07-29T08:44:36;0.73;;;0.65;;
32808;SDS011;19159;48.178;16.386;2023-07-29T08:47:08;1.23;;;0.70;;
32808;SDS011;19159;48.178;16.386;2023-07-29T08:49:35;2.97;;;0.70;;
32808;SDS011;19159;48.178;16.386;2023-07-29T08:52:01;1.73;;;0.70;;
32808;SDS011;19159;48.178;16.386;2023-07-29T08:54:29;2.33;;;0.90;;
32808;SDS011;19159;48.178;16.386;2023-07-29T08:56:54;1.15;;;1.00;;
32808;SDS011;19159;48.178;16.386;2023-07-29T08:59:20;0.80;;;0.68;;
32808;SDS011;19159;48.178;16.386;2023-07-29T09:01:46;1.73;;;0.90;;
32808;SDS011;19159;48.178;16.386;2023-07-29T09:04:12;0.70;;;0.57;;
32808;SDS011;19159;48.178;16.386;2023-07-29T09:06:41;0.82;;;0.77;;
32808;SDS011;19159;48.178;16.386;2023-07-29T09:09:09;0.57;;;0.57;;
32808;SDS011;19159;48.178;16.386;2023-07-29T09:11:35;0.95;;;0.80;;
32808;SDS011;19159;48.178;16.386;2023-07-29T09:14:01;1.00;;;0.80;;
32808;SDS011;19159;48.178;16.386;2023-07-29T09:16:26;1.77;;;0.68;;
32808;SDS011;19159;48.178;16.386;2023-07-29T09:18:52;1.65;;;0.70;;
32808;SDS011;19159;48.178;16.386;2023-07-29T09:21:22;0.47;;;0.47;;
32808;SDS011;19159;48.178;16.386;2023-07-29T09:23:50;0.80;;;0.70;;
32808;SDS011;19159;48.178;16.386;2023-07-29T09:26:25;1.10;;;0.90;;
32808;SDS011;19159;48.178;16.386;2023-07-29T09:28:52;1.15;;;0.80;;
32808;SDS011;19159;48.178;16.386;2023-07-29T09:31:22;1.27;;;0.85;;
32808;SDS011;19159;48.178;16.386;2023-07-29T09:33:49;1.10;;;1.00;;
32808;SDS011;19159;48.178;16.386;2023-07-29T09:36:21;0.82;;;0.73;;
32808;SDS011;19159;48.178;16.386;2023-07-29T09:38:47;0.93;;;0.90;;
32808;SDS011;19159;48.178;16.386;2023-07-29T09:41:13;1.42;;;0.77;;
32808;SDS011;19159;48.178;16.386;2023-07-29T09:43:40;1.30;;;0.90;;
32808;SDS011;19159;48.178;16.386;2023-07-29T09:46:06;1.98;;;0.82;;
32808;SDS011;19159;48.178;16.386;2023-07-29T09:48:35;2.15;;;0.90;;
32808;SDS011;19159;48.178;16.386;2023-07-29T09:51:14;0.88;;;0.73;;
32808;SDS011;19159;48.178;16.386;2023-07-29T09:53:42;1.20;;;0.85;;
32808;SDS011;19159;48.178;16.386;2023-07-29T09:56:12;1.40;;;0.55;;
32808;SDS011;19159;48.178;16.386;2023-07-29T09:58:38;2.10;;;0.73;;
32808;SDS011;19159;48.178;16.386;2023-07-29T10:01:06;0.80;;;0.70;;
32808;SDS011;19159;48.178;16.386;2023-07-29T10:03:32;0.90;;;0.77;;
32808;SDS011;19159;48.178;16.386;2023-07-29T10:06:03;0.73;;;0.70;;
32808;SDS011;19159;48.178;16.386;2023-07-29T10:08:30;1.00;;;0.80;;
32808;SDS011;19159;48.178;16.386;2023-07-29T10:11:06;1.25;;;0.68;;
32808;SDS011;19159;48.178;16.386;2023-07-29T10:13:33;3.45;;;0.80;;
32808;SDS011;19159;48.178;16.386;2023-07-29T10:15:59;3.70;;;1.02;;
32808;SDS011;19159;48.178;16.386;2023-07-29T10:18:27;3.05;;;0.65;;
32808;SDS011;19159;48.178;16.386;2023-07-29T10:20:54;0.90;;;0.70;;
32808;SDS011;19159;48.178;16.386;2023-07-29T10:23:22;1.10;;;0.70;;
32808;SDS011;19159;48.178;16.386;2023-07-29T10:25:55;0.70;;;0.70;;
32808;SDS011;19159;48.178;16.386;2023-07-29T10:28:29;0.70;;;0.60;;
32808;SDS011;19159;48.178;16.386;2023-07-29T10:30:56;1.65;;;0.80;;
32808;SDS011;19159;48.178;16.386;2023-07-29T10:33:23;0.70;;;0.70;;
32808;SDS011;19159;48.178;16.386;2023-07-29T10:35:49;1.20;;;0.80;;
32808;SDS011;19159;48.178;16.386;2023-07-29T10:38:15;1.02;;;0.70;;
32808;SDS011;19159;48.178;16.386;2023-07-29T10:40:46;1.00;;;0.68;;
32808;SDS011;19159;48.178;16.386;2023-07-29T10:43:23;0.50;;;0.50;;
32808;SDS011;19159;48.178;16.386;2023-07-29T10:45:50;1.80;;;0.60;;
32808;SDS011;19159;48.178;16.386;2023-07-29T10:53:59;0.55;;;0.52;;
32808;SDS011;19159;48.178;16.386;2023-07-29T10:56:33;0.68;;;0.65;;
32808;SDS011;19159;48.178;16.386;2023-07-29T11:01:41;0.52;;;0.50;;
32808;SDS011;19159;48.178;16.386;2023-07-29T11:15:25;0.85;;;0.57;;
32808;SDS011;19159;48.178;16.386;2023-07-29T11:20:30;1.30;;;0.75;;
32808;SDS011;19159;48.178;16.386;2023-07-29T11:22:58;0.98;;;0.60;;
32808;SDS011;19159;48.178;16.386;2023-07-29T11:25:28;1.75;;;0.90;;
32808;SDS011;19159;48.178;16.386;2023-07-29T11:27:55;1.00;;;0.90;;
32808;SDS011;19159;48.178;16.386;2023-07-29T11:30:22;0.80;;;0.70;;
32808;SDS011;19159;48.178;16.386;2023-07-29T11:32:50;1.20;;;0.88;;
32808;SDS011;19159;48.178;16.386;2023-07-29T11:35:16;0.77;;;0.70;;
32808;SDS011;19159;48.178;16.386;2023-07-29T11:37:46;1.90;;;0.90;;
32808;SDS011;19159;48.178;16.386;2023-07-29T11:40:18;1.40;;;1.00;;
32808;SDS011;19159;48.178;16.386;2023-07-29T11:42:45;1.60;;;1.00;;
32808;SDS011;19159;48.178;16.386;2023-07-29T11:45:11;1.00;;;0.90;;
32808;SDS011;19159;48.178;16.386;2023-07-29T11:47:38;1.00;;;0.90;;
32808;SDS011;19159;48.178;16.386;2023-07-29T11:50:04;1.00;;;0.90;;
32808;SDS011;19159;48.178;16.386;2023-07-29T11:52:35;1.77;;;1.10;;
32808;SDS011;19159;48.178;16.386;2023-07-29T11:55:02;4.78;;;3.13;;
32808;SDS011;19159;48.178;16.386;2023-07-29T11:57:29;1.52;;;0.90;;
32808;SDS011;19159;48.178;16.386;2023-07-29T11:59:56;1.25;;;1.13;;
32808;SDS011;19159;48.178;16.386;2023-07-29T12:02:22;1.48;;;1.27;;
32808;SDS011;19159;48.178;16.386;2023-07-29T12:04:48;1.75;;;1.23;;
32808;SDS011;19159;48.178;16.386;2023-07-29T12:07:16;1.60;;;1.10;;
32808;SDS011;19159;48.178;16.386;2023-07-29T12:09:42;3.10;;;1.30;;
32808;SDS011;19159;48.178;16.386;2023-07-29T12:12:08;3.58;;;1.25;;
32808;SDS011;19159;48.178;16.386;2023-07-29T12:14:34;1.63;;;1.20;;
32808;SDS011;19159;48.178;16.386;2023-07-29T12:17:00;1.40;;;1.17;;
32808;SDS011;19159;48.178;16.386;2023-07-29T12:19:37;1.60;;;1.27;;
32808;SDS011;19159;48.178;16.386;2023-07-29T12:22:04;2.47;;;1.10;;
32808;SDS011;19159;48.178;16.386;2023-07-29T12:24:32;1.77;;;0.73;;
32808;SDS011;19159;48.178;16.386;2023-07-29T12:27:00;1.15;;;0.93;;
32808;SDS011;19159;48.178;16.386;2023-07-29T12:29:26;1.15;;;0.80;;
32808;SDS011;19159;48.178;16.386;2023-07-29T12:31:59;1.80;;;1.30;;
32808;SDS011;19159;48.178;16.386;2023-07-29T12:34:29;1.60;;;1.23;;
32808;SDS011;19159;48.178;16.386;2023-07-29T12:36:56;1.20;;;1.10;;
32808;SDS011;19159;48.178;16.386;2023-07-29T12:39:24;2.28;;;1.15;;
32808;SDS011;19159;48.178;16.386;2023-07-29T12:41:54;1.63;;;1.10;;
32808;SDS011;19159;48.178;16.386;2023-07-29T12:44:34;1.10;;;0.80;;
32808;SDS011;19159;48.178;16.386;2023-07-29T12:47:01;2.03;;;1.08;;
32808;SDS011;19159;48.178;16.386;2023-07-29T12:49:28;1.20;;;1.00;;
32808;SDS011;19159;48.178;16.386;2023-07-29T12:51:55;1.20;;;0.90;;
32808;SDS011;19159;48.178;16.386;2023-07-29T12:54:21;1.30;;;1.15;;
32808;SDS011;19159;48.178;16.386;2023-07-29T12:56:47;1.25;;;1.10;;
32808;SDS011;19159;48.178;16.386;2023-07-29T12:59:12;1.73;;;1.08;;
32808;SDS011;19159;48.178;16.386;2023-07-29T13:01:38;3.70;;;1.10;;
32808;SDS011;19159;48.178;16.386;2023-07-29T13:04:04;2.30;;;0.93;;
32808;SDS011;19159;48.178;16.386;2023-07-29T13:06:29;3.35;;;1.10;;
32808;SDS011;19159;48.178;16.386;2023-07-29T13:08:58;2.85;;;0.90;;
32808;SDS011;19159;48.178;16.386;2023-07-29T13:11:24;2.33;;;1.13;;
32808;SDS011;19159;48.178;16.386;2023-07-29T13:13:49;2.83;;;1.10;;
32808;SDS011;19159;48.178;16.386;2023-07-29T13:16:15;3.58;;;1.13;;
32808;SDS011;19159;48.178;16.386;2023-07-29T13:18:41;4.78;;;1.00;;
32808;SDS011;19159;48.178;16.386;2023-07-29T13:21:08;3.97;;;1.15;;
32808;SDS011;19159;48.178;16.386;2023-07-29T13:23:34;4.95;;;1.05;;
32808;SDS011;19159;48.178;16.386;2023-07-29T13:25:59;2.15;;;0.90;;
32808;SDS011;19159;48.178;16.386;2023-07-29T13:28:25;0.93;;;0.90;;
32808;SDS011;19159;48.178;16.386;2023-07-29T13:30:51;1.13;;;0.85;;
32808;SDS011;19159;48.178;16.386;2023-07-29T13:33:16;1.67;;;0.80;;
32808;SDS011;19159;48.178;16.386;2023-07-29T13:35:42;2.47;;;0.73;;
32808;SDS011;19159;48.178;16.386;2023-07-29T13:38:07;2.85;;;0.90;;
32808;SDS011;19159;48.178;16.386;2023-07-29T13:40:34;1.77;;;0.90;;
32808;SDS011;19159;48.178;16.386;2023-07-29T13:43:00;2.92;;;0.93;;
32808;SDS011;19159;48.178;16.386;2023-07-29T13:45:25;1.45;;;0.90;;
32808;SDS011;19159;48.178;16.386;2023-07-29T13:47:51;1.35;;;0.80;;
32808;SDS011;19159;48.178;16.386;2023-07-29T13:50:17;1.67;;;1.00;;
32808;SDS011;19159;48.178;16.386;2023-07-29T13:52:43;3.60;;;1.13;;
32808;SDS011;19159;48.178;16.386;2023-07-29T13:55:09;3.58;;;1.02;;
32808;SDS011;19159;48.178;16.386;2023-07-29T13:57:35;1.52;;;1.00;;
32808;SDS011;19159;48.178;16.386;2023-07-29T14:00:01;1.13;;;0.90;;
32808;SDS011;19159;48.178;16.386;2023-07-29T14:02:26;1.25;;;0.95;;
32808;SDS011;19159;48.178;16.386;2023-07-29T14:04:52;5.80;;;1.20;;
32808;SDS011;19159;48.178;16.386;2023-07-29T14:07:18;4.50;;;1.15;;
32808;SDS011;19159;48.178;16.386;2023-07-29T14:09:43;1.02;;;0.90;;
32808;SDS011;19159;48.178;16.386;2023-07-29T14:12:10;1.15;;;0.98;;
32808;SDS011;19159;48.178;16.386;2023-07-29T14:14:37;2.10;;;1.20;;
32808;SDS011;19159;48.178;16.386;2023-07-29T14:17:03;1.35;;;0.98;;
32808;SDS011;19159;48.178;16.386;2023-07-29T14:19:29;1.55;;;1.10;;
32808;SDS011;19159;48.178;16.386;2023-07-29T14:21:56;1.40;;;1.02;;
32808;SDS011;19159;48.178;16.386;2023-07-29T14:24:21;2.40;;;1.00;;
32808;SDS011;19159;48.178;16.386;2023-07-29T14:26:47;1.20;;;1.00;;
32808;SDS011;19159;48.178;16.386;2023-07-29T14:29:13;2.40;;;1.15;;
32808;SDS011;19159;48.178;16.386;2023-07-29T14:31:39;2.67;;;1.13;;
32808;SDS011;19159;48.178;16.386;2023-07-29T14:34:04;1.88;;;1.15;;
32808;SDS011;19159;48.178;16.386;2023-07-29T14:36:30;3.92;;;1.10;;
32808;SDS011;19159;48.178;16.386;2023-07-29T14:38:55;0.98;;;0.90;;
32808;SDS011;19159;48.178;16.386;2023-07-29T14:41:21;1.55;;;1.38;;
32808;SDS011;19159;48.178;16.386;2023-07-29T14:43:47;1.45;;;1.13;;
32808;SDS011;19159;48.178;16.386;2023-07-29T14:46:12;2.33;;;1.05;;
32808;SDS011;19159;48.178;16.386;2023-07-29T14:48:38;2.20;;;1.00;;
32808;SDS011;19159;48.178;16.386;2023-07-29T14:51:03;3.30;;;1.10;;
32808;SDS011;19159;48.178;16.386;2023-07-29T14:53:29;1.42;;;0.98;;
32808;SDS011;19159;48.178;16.386;2023-07-29T14:55:54;2.85;;;1.40;;
32808;SDS011;19159;48.178;16.386;2023-07-29T14:58:20;4.40;;;1.30;;
32808;SDS011;19159;48.178;16.386;2023-07-29T15:00:46;1.48;;;1.10;;